createdAt,value
2022-07-29T00:01:20.278Z,21.40
2022-07-29T00:03:49.865Z,21.40
2022-07-29T00:06:18.357Z,21.30
2022-07-29T00:08:46.354Z,21.30
2022-07-29T00:11:14.419Z,21.30
2022-07-29T00:13:44.451Z,21.30
2022-07-29T00:16:16.007Z,21.20
2022-07-29T00:18:44.017Z,21.20
2022-07-29T00:21:13.379Z,21.10
2022-07-29T00:23:41.435Z,21.10
2022-07-29T00:26:09.435Z,21.10
2022-07-29T00:28:37.446Z,21.00
2022-07-29T00:31:05.529Z,21.10
2022-07-29T00:33:33.592Z,21.10
2022-07-29T00:36:00.616Z,21.10
2022-07-29T00:38:29.997Z,21.10
2022-07-29T00:40:58.034Z,21.10
2022-07-29T00:43:26.091Z,21.10
2022-07-29T00:45:54.191Z,21.10
2022-07-29T00:48:22.253Z,21.10
2022-07-29T00:50:51.889Z,21.10
2022-07-29T00:53:21.324Z,21.10
2022-07-29T00:55:52.392Z,21.10
2022-07-29T00:58:20.570Z,21.10
2022-07-29T01:00:48.731Z,21.10
2022-07-29T01:03:16.911Z,21.10
2022-07-29T01:05:50.222Z,21.10
2022-07-29T01:08:20.838Z,21.10
2022-07-29T01:10:51.265Z,21.10
2022-07-29T01:13:19.931Z,21.10
2022-07-29T01:15:53.819Z,21.00
2022-07-29T01:18:30.523Z,21.00
2022-07-29T01:21:20.021Z,20.90
2022-07-29T01:24:08.918Z,20.90
2022-07-29T01:26:51.288Z,20.90
2022-07-29T01:29:29.794Z,20.90
2022-07-29T01:32:09.302Z,20.90
2022-07-29T01:34:59.777Z,20.90
2022-07-29T01:37:32.641Z,20.90
2022-07-29T01:40:02.918Z,20.80
2022-07-29T01:42:36.263Z,20.80
2022-07-29T01:45:11.770Z,20.80
2022-07-29T01:47:44.871Z,20.80
2022-07-29T01:50:15.123Z,20.80
2022-07-29T01:52:51.649Z,20.70
2022-07-29T01:55:22.157Z,20.70
2022-07-29T01:57:51.075Z,20.80
2022-07-29T02:00:21.036Z,20.80
2022-07-29T02:02:51.182Z,20.80
2022-07-29T02:05:22.584Z,20.80
2022-07-29T02:07:51.659Z,20.70
2022-07-29T02:10:25.641Z,20.70
2022-07-29T02:12:56.135Z,20.70
2022-07-29T02:15:26.650Z,20.60
2022-07-29T02:18:00.306Z,20.60
2022-07-29T02:20:29.866Z,20.60
2022-07-29T02:23:00.302Z,20.50
2022-07-29T02:25:37.232Z,20.50
2022-07-29T02:28:08.561Z,20.40
2022-07-29T02:30:41.256Z,20.40
2022-07-29T02:33:11.973Z,20.30
2022-07-29T02:35:42.293Z,20.30
2022-07-29T02:38:28.806Z,20.20
2022-07-29T02:40:58.880Z,20.20
2022-07-29T02:43:27.864Z,20.20
2022-07-29T02:45:58.882Z,20.20
2022-07-29T02:48:34.364Z,20.00
2022-07-29T02:51:08.460Z,20.00
2022-07-29T02:53:38.684Z,20.00
2022-07-29T02:56:10.607Z,19.90
2022-07-29T02:58:42.435Z,19.90
2022-07-29T03:01:21.362Z,19.90
2022-07-29T03:03:52.718Z,19.90
2022-07-29T03:06:37.646Z,19.90
2022-07-29T03:09:13.009Z,19.80
2022-07-29T03:11:50.076Z,19.80
2022-07-29T03:14:21.251Z,19.80
2022-07-29T03:16:52.912Z,19.70
2022-07-29T03:19:22.503Z,19.70
2022-07-29T03:21:50.731Z,19.70
2022-07-29T03:24:29.768Z,19.70
2022-07-29T03:26:58.928Z,19.70
2022-07-29T03:29:34.046Z,19.60
2022-07-29T03:32:08.120Z,19.60
2022-07-29T03:34:38.144Z,19.50
2022-07-29T03:37:06.862Z,19.40
2022-07-29T03:39:38.715Z,19.40
2022-07-29T03:42:08.674Z,19.40
2022-07-29T03:44:38.221Z,19.30
2022-07-29T03:47:09.377Z,19.40
2022-07-29T03:49:39.638Z,19.40
2022-07-29T03:52:08.046Z,19.40
2022-07-29T03:54:36.336Z,19.40
2022-07-29T03:57:05.614Z,19.50
2022-07-29T03:59:35.808Z,19.50
2022-07-29T04:02:05.312Z,19.50
2022-07-29T04:04:37.093Z,19.50
2022-07-29T04:07:05.893Z,19.50
2022-07-29T04:09:34.067Z,19.60
2022-07-29T04:12:04.224Z,19.60
2022-07-29T04:14:33.292Z,19.50
2022-07-29T04:17:01.484Z,19.50
2022-07-29T04:19:29.822Z,19.60
2022-07-29T04:21:59.568Z,19.60
2022-07-29T04:24:27.769Z,19.60
2022-07-29T04:26:56.026Z,19.60
2022-07-29T04:29:24.155Z,19.60
2022-07-29T04:31:52.154Z,19.60
2022-07-29T04:34:20.589Z,19.70
2022-07-29T04:36:48.884Z,19.70
2022-07-29T04:39:22.635Z,19.70
2022-07-29T04:41:52.542Z,19.70
2022-07-29T04:44:28.491Z,19.70
2022-07-29T04:46:57.949Z,19.70
2022-07-29T04:49:26.069Z,19.70
2022-07-29T04:51:54.122Z,19.70
2022-07-29T04:54:23.675Z,19.70
2022-07-29T04:56:52.739Z,19.70
2022-07-29T04:59:20.770Z,19.70
2022-07-29T05:01:48.864Z,19.70
2022-07-29T05:04:17.354Z,19.80
2022-07-29T05:06:45.598Z,19.80
2022-07-29T05:09:13.749Z,19.80
2022-07-29T05:11:43.113Z,19.80
2022-07-29T05:14:11.144Z,19.90
2022-07-29T05:16:40.438Z,19.80
2022-07-29T05:19:13.657Z,19.80
2022-07-29T05:21:42.369Z,19.80
2022-07-29T05:24:10.456Z,19.80
2022-07-29T05:26:38.561Z,19.80
2022-07-29T05:29:08.057Z,19.70
2022-07-29T05:31:56.075Z,19.70
2022-07-29T05:34:25.991Z,19.70
2022-07-29T05:36:54.357Z,19.70
2022-07-29T05:39:22.383Z,19.70
2022-07-29T05:42:11.069Z,19.60
2022-07-29T05:44:40.945Z,19.60
2022-07-29T05:47:09.023Z,19.60
2022-07-29T05:49:37.058Z,19.60
2022-07-29T05:52:05.577Z,19.60
2022-07-29T05:54:33.631Z,19.60
2022-07-29T05:57:01.623Z,19.60
2022-07-29T05:59:30.618Z,19.60
2022-07-29T06:02:00.106Z,19.60
2022-07-29T06:04:28.289Z,19.60
2022-07-29T06:06:56.291Z,19.50
2022-07-29T06:09:24.810Z,19.50
2022-07-29T06:11:53.504Z,19.50
2022-07-29T06:14:21.515Z,19.50
2022-07-29T06:16:49.581Z,19.50
2022-07-29T06:19:19.212Z,19.50
2022-07-29T06:21:48.962Z,19.50
2022-07-29T06:24:18.132Z,19.50
2022-07-29T06:26:46.569Z,19.40
2022-07-29T06:29:15.057Z,19.40
2022-07-29T06:31:43.146Z,19.40
2022-07-29T06:34:11.125Z,19.50
2022-07-29T06:36:41.142Z,19.50
2022-07-29T06:39:13.269Z,19.60
2022-07-29T06:41:41.454Z,19.50
2022-07-29T06:44:09.999Z,19.50
2022-07-29T06:46:38.063Z,19.50
2022-07-29T06:49:06.622Z,19.50
2022-07-29T06:51:35.077Z,19.50
2022-07-29T06:54:06.551Z,19.50
2022-07-29T06:56:39.061Z,19.60
2022-07-29T06:59:09.118Z,19.60
2022-07-29T07:01:39.132Z,19.70
2022-07-29T07:04:07.748Z,19.80
2022-07-29T07:06:35.737Z,19.80
2022-07-29T07:09:05.658Z,19.90
2022-07-29T07:11:33.817Z,19.90
2022-07-29T07:14:03.777Z,20.00
2022-07-29T07:16:32.680Z,20.10
2022-07-29T07:19:00.993Z,20.20
2022-07-29T07:21:30.547Z,20.30
2022-07-29T07:23:59.414Z,20.30
2022-07-29T07:26:29.719Z,20.40
2022-07-29T07:28:57.765Z,20.60
2022-07-29T07:31:25.963Z,20.70
2022-07-29T07:33:54.363Z,20.90
2022-07-29T07:36:22.689Z,21.00
2022-07-29T07:38:50.786Z,21.20
2022-07-29T07:41:18.773Z,21.40
2022-07-29T07:43:48.143Z,21.80
2022-07-29T07:46:16.643Z,22.30
2022-07-29T07:48:44.771Z,22.90
2022-07-29T07:51:12.798Z,23.50
2022-07-29T07:53:41.045Z,24.00
2022-07-29T07:56:12.184Z,24.40
2022-07-29T07:58:41.094Z,24.70
2022-07-29T08:01:11.038Z,24.90
2022-07-29T08:03:39.808Z,25.30
2022-07-29T08:06:08.054Z,25.60
2022-07-29T08:08:36.121Z,25.60
2022-07-29T08:11:09.030Z,25.90
2022-07-29T08:13:38.959Z,25.90
2022-07-29T08:16:13.839Z,26.20
2022-07-29T08:18:45.425Z,26.30
2022-07-29T08:21:14.827Z,26.50
2022-07-29T08:23:54.379Z,26.60
2022-07-29T08:26:27.042Z,26.40
2022-07-29T08:28:55.173Z,26.60
2022-07-29T08:31:23.206Z,26.80
2022-07-29T08:33:52.575Z,26.90
2022-07-29T08:36:21.939Z,26.50
2022-07-29T08:38:50.565Z,26.30
2022-07-29T08:41:20.038Z,26.20
2022-07-29T08:43:48.329Z,25.60
2022-07-29T08:46:16.765Z,25.40
2022-07-29T08:48:45.574Z,25.20
2022-07-29T08:51:17.968Z,25.00
2022-07-29T08:53:48.373Z,24.80
2022-07-29T08:56:17.756Z,24.90
2022-07-29T08:58:48.743Z,25.30
2022-07-29T09:01:36.581Z,25.80
2022-07-29T09:04:14.148Z,26.00
2022-07-29T09:06:46.878Z,25.90
2022-07-29T09:09:15.687Z,25.80
2022-07-29T09:11:44.423Z,25.60
2022-07-29T09:14:15.041Z,25.30
2022-07-29T09:16:53.531Z,25.30
2022-07-29T09:19:27.034Z,25.10
2022-07-29T09:21:59.418Z,25.10
2022-07-29T09:24:29.795Z,25.00
2022-07-29T09:26:57.807Z,25.00
2022-07-29T09:29:26.499Z,25.10
2022-07-29T09:31:56.207Z,25.10
2022-07-29T09:34:25.884Z,24.90
2022-07-29T09:36:56.744Z,24.90
2022-07-29T09:39:32.936Z,24.80
2022-07-29T09:42:04.638Z,24.90
2022-07-29T09:44:46.885Z,25.10
2022-07-29T09:47:15.149Z,25.20
2022-07-29T09:49:58.864Z,25.50
2022-07-29T09:52:29.014Z,26.00
2022-07-29T09:55:06.937Z,26.60
2022-07-29T09:57:36.958Z,27.10
2022-07-29T10:00:08.099Z,27.20
2022-07-29T10:02:37.353Z,27.30
2022-07-29T10:05:07.926Z,27.40
2022-07-29T10:07:51.880Z,27.50
2022-07-29T10:10:24.270Z,27.50
2022-07-29T10:12:54.968Z,27.50
2022-07-29T10:15:24.976Z,27.70
2022-07-29T10:17:54.132Z,27.90
2022-07-29T10:20:22.939Z,28.00
2022-07-29T10:22:54.302Z,28.20
2022-07-29T10:25:23.455Z,28.60
2022-07-29T10:27:53.289Z,29.00
2022-07-29T10:30:23.704Z,29.20
2022-07-29T10:33:07.762Z,29.50
2022-07-29T10:36:03.907Z,29.60
2022-07-29T10:39:04.346Z,29.50
2022-07-29T10:41:52.068Z,29.30
2022-07-29T10:44:23.068Z,29.40
2022-07-29T10:46:52.824Z,29.60
2022-07-29T10:49:25.211Z,29.70
2022-07-29T10:51:58.774Z,29.90
2022-07-29T10:54:48.876Z,30.10
2022-07-29T10:57:53.692Z,30.30
2022-07-29T11:00:33.071Z,30.50
2022-07-29T11:03:04.710Z,30.50
2022-07-29T11:05:55.414Z,30.60
2022-07-29T11:08:28.359Z,30.70
2022-07-29T11:11:33.541Z,30.70
2022-07-29T11:14:04.668Z,30.50
2022-07-29T11:17:00.496Z,30.40
2022-07-29T11:19:30.617Z,30.60
2022-07-29T11:21:59.740Z,30.60
2022-07-29T11:24:34.969Z,30.50
2022-07-29T11:27:14.683Z,30.40
2022-07-29T11:30:01.108Z,30.40
2022-07-29T11:32:38.791Z,30.10
2022-07-29T11:35:17.022Z,30.40
2022-07-29T11:37:55.947Z,30.40
2022-07-29T11:40:26.008Z,30.50
2022-07-29T11:42:55.169Z,30.80
2022-07-29T11:45:42.563Z,30.70
2022-07-29T11:48:28.982Z,30.60
2022-07-29T11:50:59.167Z,30.60
2022-07-29T11:53:29.246Z,30.80
2022-07-29T11:56:02.759Z,30.80
2022-07-29T11:58:32.523Z,30.60
2022-07-29T12:04:06.746Z,29.60
2022-07-29T12:06:35.083Z,29.30
2022-07-29T12:07:03.784Z,30.10
2022-07-29T12:09:14.379Z,29.20
2022-07-29T12:11:45.066Z,29.10
2022-07-29T12:14:27.988Z,29.10
2022-07-29T12:16:58.040Z,28.90
2022-07-29T12:19:26.854Z,28.90
2022-07-29T12:21:59.733Z,28.90
2022-07-29T12:24:44.918Z,28.80
2022-07-29T12:27:14.882Z,28.80
2022-07-29T12:29:47.771Z,28.70
2022-07-29T12:32:19.753Z,28.60
2022-07-29T12:34:48.405Z,28.60
2022-07-29T12:37:16.612Z,28.40
2022-07-29T12:39:45.063Z,28.20
2022-07-29T12:42:15.023Z,28.00
2022-07-29T12:44:49.002Z,27.80
2022-07-29T12:47:20.019Z,27.80
2022-07-29T12:49:48.921Z,27.70
2022-07-29T12:52:30.770Z,27.70
2022-07-29T12:55:00.151Z,27.70
2022-07-29T12:57:28.759Z,27.60
2022-07-29T13:00:10.299Z,27.40
2022-07-29T13:02:41.692Z,27.20
2022-07-29T13:05:11.481Z,27.10
2022-07-29T13:07:55.628Z,27.10
2022-07-29T13:10:26.082Z,27.00
2022-07-29T13:13:05.182Z,27.00
2022-07-29T13:15:33.440Z,26.90
2022-07-29T13:18:03.029Z,26.70
2022-07-29T13:20:31.687Z,26.60
2022-07-29T13:23:00.954Z,26.50
2022-07-29T13:25:30.908Z,26.40
2022-07-29T13:27:59.236Z,26.40
2022-07-29T13:30:27.838Z,26.20
2022-07-29T13:32:56.496Z,26.10
2022-07-29T13:35:25.954Z,26.10
2022-07-29T13:37:54.089Z,25.90
2022-07-29T13:40:22.135Z,25.90
2022-07-29T13:42:50.288Z,25.70
2022-07-29T13:45:18.431Z,25.60
2022-07-29T13:47:49.379Z,25.60
2022-07-29T13:50:17.727Z,25.60
2022-07-29T13:52:49.219Z,25.40
2022-07-29T13:55:17.206Z,25.40
2022-07-29T13:57:45.224Z,25.30
2022-07-29T14:00:14.664Z,25.10
2022-07-29T14:02:42.693Z,25.00
2022-07-29T14:05:11.759Z,25.00
2022-07-29T14:07:40.705Z,25.00
2022-07-29T14:10:11.073Z,24.90
2022-07-29T14:12:39.767Z,25.00
2022-07-29T14:15:08.579Z,24.90
2022-07-29T14:17:36.585Z,24.90
2022-07-29T14:20:05.504Z,24.90
2022-07-29T14:22:36.076Z,24.90
2022-07-29T14:25:14.526Z,24.80
2022-07-29T14:27:43.638Z,24.70
2022-07-29T14:30:12.707Z,24.70
2022-07-29T14:32:40.720Z,24.70
2022-07-29T14:35:09.904Z,24.40
2022-07-29T14:37:40.385Z,24.30
2022-07-29T14:40:11.848Z,24.10
2022-07-29T14:42:40.593Z,24.00
2022-07-29T14:45:10.296Z,23.90
2022-07-29T14:47:39.081Z,24.00
2022-07-29T14:50:08.303Z,23.90
2022-07-29T14:52:36.342Z,23.90
2022-07-29T14:55:05.282Z,24.10
2022-07-29T14:57:45.763Z,24.20
2022-07-29T15:00:14.535Z,24.40
2022-07-29T15:03:00.925Z,24.70
2022-07-29T15:05:30.687Z,24.80
2022-07-29T15:07:58.844Z,24.90
2022-07-29T15:10:27.169Z,25.00
2022-07-29T15:12:57.063Z,25.00
2022-07-29T15:15:25.301Z,25.10
2022-07-29T15:17:53.273Z,25.10
2022-07-29T15:20:22.323Z,25.10
2022-07-29T15:22:50.705Z,25.10
2022-07-29T15:25:18.874Z,25.10
2022-07-29T15:27:52.351Z,25.10
2022-07-29T15:30:32.339Z,25.10
2022-07-29T15:33:02.578Z,25.20
2022-07-29T15:35:31.334Z,25.10
2022-07-29T15:37:59.424Z,25.10
2022-07-29T15:40:27.645Z,25.10
2022-07-29T15:42:56.277Z,25.10
2022-07-29T15:45:25.869Z,25.00
2022-07-29T15:48:00.113Z,25.00
2022-07-29T15:50:28.151Z,25.00
2022-07-29T15:52:56.158Z,24.90
2022-07-29T15:55:24.473Z,24.90
2022-07-29T15:57:56.134Z,24.90
2022-07-29T16:00:28.045Z,24.80
2022-07-29T16:02:56.149Z,24.70
2022-07-29T16:05:24.319Z,24.70
2022-07-29T16:07:52.341Z,24.60
2022-07-29T16:10:20.435Z,24.60
2022-07-29T16:12:48.462Z,24.60
2022-07-29T16:15:16.551Z,24.50
2022-07-29T16:17:45.936Z,24.50
2022-07-29T16:20:14.125Z,24.40
2022-07-29T16:22:42.319Z,24.30
2022-07-29T16:25:11.032Z,24.20
2022-07-29T16:27:39.133Z,24.10
2022-07-29T16:30:09.992Z,24.00
2022-07-29T16:32:38.249Z,23.80
2022-07-29T16:35:09.931Z,23.80
2022-07-29T16:37:41.455Z,23.80
2022-07-29T16:40:11.826Z,23.70
2022-07-29T16:42:48.032Z,23.70
2022-07-29T16:45:17.451Z,23.60
2022-07-29T16:47:46.205Z,23.60
2022-07-29T16:50:15.678Z,23.50
2022-07-29T16:52:43.726Z,23.40
2022-07-29T16:55:11.770Z,23.40
2022-07-29T16:57:39.926Z,23.30
2022-07-29T17:00:09.150Z,23.20
2022-07-29T17:02:38.656Z,23.20
2022-07-29T17:05:07.638Z,23.10
2022-07-29T17:07:37.413Z,23.00
2022-07-29T17:10:08.072Z,23.00
2022-07-29T17:12:36.387Z,23.00
2022-07-29T17:15:05.342Z,23.00
2022-07-29T17:17:38.871Z,23.00
2022-07-29T17:20:22.433Z,23.00
2022-07-29T17:22:51.825Z,22.90
2022-07-29T17:25:20.327Z,22.90
2022-07-29T17:27:50.486Z,22.90
2022-07-29T17:30:18.927Z,22.80
2022-07-29T17:32:46.929Z,22.90
2022-07-29T17:35:32.371Z,22.80
2022-07-29T17:38:01.766Z,22.80
2022-07-29T17:40:29.757Z,22.80
2022-07-29T17:42:57.778Z,22.70
2022-07-29T17:45:26.145Z,22.70
2022-07-29T17:48:14.106Z,22.70
2022-07-29T17:50:42.141Z,22.60
2022-07-29T17:53:16.363Z,22.60
2022-07-29T17:55:45.875Z,22.60
2022-07-29T17:58:14.030Z,22.50
2022-07-29T18:00:42.910Z,22.50
2022-07-29T18:03:11.220Z,22.40
2022-07-29T18:05:39.321Z,22.30
2022-07-29T18:08:07.500Z,22.20
2022-07-29T18:10:37.293Z,22.10
2022-07-29T18:13:05.366Z,22.00
2022-07-29T18:15:33.500Z,21.80
2022-07-29T18:18:01.516Z,21.70
2022-07-29T18:20:29.638Z,21.70
2022-07-29T18:22:57.862Z,21.60
2022-07-29T18:25:26.737Z,21.50
2022-07-29T18:28:00.348Z,21.50
2022-07-29T18:30:29.152Z,21.40
2022-07-29T18:33:19.624Z,21.30
2022-07-29T18:35:45.418Z,21.20
2022-07-29T18:38:13.445Z,21.10
2022-07-29T18:40:42.511Z,21.00
2022-07-29T18:43:12.528Z,21.00
2022-07-29T18:45:40.780Z,20.90
2022-07-29T18:48:13.277Z,20.90
2022-07-29T18:50:42.341Z,20.90
2022-07-29T18:53:10.845Z,20.80
2022-07-29T18:55:38.911Z,20.80
2022-07-29T18:58:07.152Z,20.70
2022-07-29T19:00:36.849Z,20.70
2022-07-29T19:03:05.124Z,20.70
2022-07-29T19:05:33.913Z,20.70
2022-07-29T19:08:02.295Z,20.60
2022-07-29T19:10:30.452Z,20.60
2022-07-29T19:12:58.789Z,20.50
2022-07-29T19:15:28.647Z,20.40
2022-07-29T19:18:01.115Z,20.30
2022-07-29T19:20:29.761Z,20.30
2022-07-29T19:22:58.538Z,20.40
2022-07-29T19:25:26.734Z,20.40
2022-07-29T19:27:54.904Z,20.40
2022-07-29T19:30:24.439Z,20.40
2022-07-29T19:32:52.551Z,20.40
2022-07-29T19:35:32.127Z,20.40
2022-07-29T19:38:02.009Z,20.40
2022-07-29T19:40:30.681Z,20.40
2022-07-29T19:42:59.188Z,20.40
2022-07-29T19:45:28.841Z,20.20
2022-07-29T19:48:01.501Z,20.20
2022-07-29T19:50:32.958Z,20.20
2022-07-29T19:53:01.571Z,20.20
2022-07-29T19:55:29.695Z,20.10
2022-07-29T19:57:58.929Z,20.10
2022-07-29T20:00:28.219Z,20.10
2022-07-29T20:02:57.403Z,20.10
2022-07-29T20:05:28.047Z,20.10
2022-07-29T20:07:57.930Z,20.10
2022-07-29T20:10:26.316Z,20.10
2022-07-29T20:12:55.204Z,20.20
2022-07-29T20:15:24.082Z,20.10
2022-07-29T20:17:56.932Z,20.10
2022-07-29T20:20:26.306Z,20.10
2022-07-29T20:22:54.622Z,20.20
2022-07-29T20:25:24.101Z,20.20
2022-07-29T20:27:53.210Z,20.20
2022-07-29T20:30:22.246Z,20.20
2022-07-29T20:32:51.187Z,20.20
2022-07-29T20:35:19.862Z,20.10
2022-07-29T20:37:52.417Z,20.10
2022-07-29T20:40:26.457Z,20.10
2022-07-29T20:42:54.603Z,20.10
2022-07-29T20:45:23.471Z,20.00
2022-07-29T20:47:52.357Z,20.00
2022-07-29T20:50:23.774Z,20.00
2022-07-29T20:52:52.731Z,20.00
2022-07-29T20:55:22.972Z,19.90
2022-07-29T20:57:52.357Z,19.90
2022-07-29T21:00:20.445Z,19.90
2022-07-29T21:02:48.583Z,19.90
2022-07-29T21:05:16.935Z,19.80
2022-07-29T21:07:44.922Z,19.80
2022-07-29T21:10:14.196Z,19.80
2022-07-29T21:12:42.931Z,19.80
2022-07-29T21:15:13.541Z,19.80
2022-07-29T21:17:46.883Z,19.80
2022-07-29T21:20:15.450Z,19.70
2022-07-29T21:22:43.598Z,19.70
2022-07-29T21:25:11.900Z,19.70
2022-07-29T21:27:57.254Z,19.70
2022-07-29T21:30:26.734Z,19.60
2022-07-29T21:32:54.810Z,19.60
2022-07-29T21:36:01.819Z,19.50
2022-07-29T21:38:10.867Z,19.50
2022-07-29T21:40:39.450Z,19.40
2022-07-29T21:43:07.387Z,19.40
2022-07-29T21:45:36.760Z,19.30
2022-07-29T21:48:05.761Z,19.30
2022-07-29T21:50:34.217Z,19.30
2022-07-29T21:53:02.664Z,19.30
2022-07-29T21:55:32.530Z,19.30
2022-07-29T21:58:00.621Z,19.20
2022-07-29T22:00:28.776Z,19.20
2022-07-29T22:02:58.610Z,19.20
2022-07-29T22:05:26.717Z,19.20
2022-07-29T22:07:56.541Z,19.10
2022-07-29T22:10:25.885Z,19.10
2022-07-29T22:12:54.481Z,19.10
2022-07-29T22:15:22.718Z,19.10
2022-07-29T22:17:51.493Z,19.00
2022-07-29T22:20:21.237Z,19.00
2022-07-29T22:22:49.294Z,18.90
2022-07-29T22:25:17.895Z,18.90
2022-07-29T22:27:46.349Z,18.80
2022-07-29T22:30:15.248Z,18.80
2022-07-29T22:32:43.715Z,18.80
2022-07-29T22:35:12.292Z,18.80
2022-07-29T22:37:41.696Z,18.80
2022-07-29T22:40:10.373Z,18.80
2022-07-29T22:42:40.634Z,18.80
2022-07-29T22:45:10.522Z,18.80
2022-07-29T22:47:46.397Z,18.80
2022-07-29T22:50:16.981Z,18.80
2022-07-29T22:52:46.326Z,18.80
2022-07-29T22:55:15.016Z,18.80
2022-07-29T22:57:43.205Z,18.70
2022-07-29T23:00:12.513Z,18.70
2022-07-29T23:02:41.469Z,18.70
2022-07-29T23:05:10.729Z,18.70
2022-07-29T23:07:38.798Z,18.70
2022-07-29T23:10:09.747Z,18.70
2022-07-29T23:12:37.904Z,18.70
2022-07-29T23:15:06.589Z,18.70
2022-07-29T23:17:36.577Z,18.60
2022-07-29T23:20:07.552Z,18.60
2022-07-29T23:22:35.710Z,18.50
2022-07-29T23:25:03.840Z,18.50
2022-07-29T23:27:33.236Z,18.50
2022-07-29T23:30:01.257Z,18.40
2022-07-29T23:32:29.256Z,18.30
2022-07-29T23:34:57.270Z,18.30
2022-07-29T23:37:27.056Z,18.30
2022-07-29T23:39:55.302Z,18.30
2022-07-29T23:42:23.403Z,18.30
2022-07-29T23:44:53.286Z,18.40
2022-07-29T23:47:21.547Z,18.30
2022-07-29T23:49:50.220Z,18.30
2022-07-29T23:52:19.032Z,18.30
2022-07-29T23:54:47.278Z,18.30
2022-07-29T23:57:15.909Z,18.30
2022-07-29T23:59:44.158Z,18.20
